DFFD/OUA METAR and TAF weather

Enter ICAO airport designator
Station Type Date Time Source
DFFD METAR 2019/02/23 03:00 UTC NOAA

DFFD 230300Z 01008KT CAVOK 24/M09 Q1012 NOSIG


Station Type Date Time Source
DFFD Decoded METAR 2019/02/23 03:00 UTC NOAA

Ouagadougou, Burkina Faso (DFFD) 12-21N 001-31W 306M
Feb 22, 2019 - 10:00 PM EST / 2019.02.23 0300 UTC
Wind: from the N (010 degrees) at 9 MPH (8 KT):0
Visibility: greater than 7 mile(s):0
Temperature: 75 F (24 C)
Dew Point: 15 F (-9 C)
Relative Humidity: 10%
Pressure (altimeter): 29.88 in. Hg (1012 hPa)
ob: DFFD 230300Z 01008KT CAVOK 24/M09 Q1012 NOSIG
cycle: 3

Station Type Date Time Source
DFFD TAF 2019/02/22 18:21 UTC NOAA

TAF TAF DFFD 221700Z 2218/2324 02008G18KT 8000 NSC
TEMPO 2306/2310 4000 DU


Example: see airport list